Time;durP1;ratioP1;P1;durP2;ratioP2;P2;SDS_P1;SDS_P2;PMS_P1;PMS_P2;Temp;Humidity;BMP_temperature;BMP_pressure;BME280_temperature;BME280_humidity;BME280_pressure;Samples;Min_cycle;Max_cycle;Signal;HPM_P1;HPM_P2
2022/12/07 00:09:15;;;;;;;44.55;30.92;;;11.90;83.80;;;;;;20923661;28;20053;-60
2022/12/07 00:19:35;;;;;;;43.35;28.83;;;11.90;83.90;;;;;;20921634;28;20040;-61
2022/12/07 00:29:52;;;;;;;47.78;30.20;;;11.80;83.80;;;;;;20921677;28;20443;-60
2022/12/07 00:40:00;;;;;;;46.08;29.38;;;11.90;83.90;;;;;;20921320;28;20095;-61
2022/12/07 00:50:04;;;;;;;47.20;30.70;;;11.80;84.00;;;;;;20920793;28;20061;-60
2022/12/07 01:00:08;;;;;;;42.45;27.95;;;11.70;84.10;;;;;;20920285;28;20469;-62
2022/12/07 01:10:11;;;;;;;45.20;27.55;;;11.70;84.20;;;;;;20917360;28;20056;-60
2022/12/07 01:20:15;;;;;;;43.53;27.92;;;11.70;84.20;;;;;;20918057;28;20478;-61
2022/12/07 01:30:18;;;;;;;40.73;26.33;;;11.60;84.40;;;;;;20915850;28;20053;-62
2022/12/07 01:40:21;;;;;;;35.38;24.77;;;11.50;84.50;;;;;;20916322;28;20136;-62
2022/12/07 01:50:28;;;;;;;34.20;23.40;;;11.50;84.50;;;;;;20915217;28;20098;-62
2022/12/07 02:00:30;;;;;;;33.28;22.45;;;11.40;84.40;;;;;;20915388;28;20052;-62
2022/12/07 02:10:34;;;;;;;32.95;22.45;;;11.40;84.20;;;;;;20914415;28;20106;-61
2022/12/07 02:21:07;;;;;;;39.10;22.65;;;11.20;84.30;;;;;;20913287;28;20052;-61
2022/12/07 02:31:20;;;;;;;33.27;22.00;;;11.20;84.60;;;;;;20913100;28;20432;-61
2022/12/07 02:41:42;;;;;;;32.58;22.40;;;11.10;84.70;;;;;;20912549;28;20114;-61
2022/12/07 02:51:59;;;;;;;33.47;21.88;;;11.10;84.80;;;;;;20912571;28;20414;-61
2022/12/07 03:02:33;;;;;;;33.55;23.63;;;11.10;84.80;;;;;;20897095;28;20481;-61
2022/12/07 03:12:55;;;;;;;32.17;22.23;;;11.20;84.90;;;;;;20911301;28;20060;-61
2022/12/07 03:23:12;;;;;;;33.63;23.25;;;11.20;84.90;;;;;;20911402;28;20139;-60
2022/12/07 03:33:41;;;;;;;34.15;24.45;;;11.20;84.90;;;;;;20909942;28;20056;-61
2022/12/07 03:43:57;;;;;;;38.45;24.80;;;11.20;85.00;;;;;;20925479;28;20415;-60
2022/12/07 03:54:28;;;;;;;39.15;23.20;;;11.20;84.90;;;;;;20924562;28;20089;-61
2022/12/07 04:04:31;;;;;;;32.97;23.63;;;11.20;84.80;;;;;;20923578;28;20060;-61
2022/12/07 04:14:34;;;;;;;125.68;114.15;;;11.20;84.90;;;;;;20922484;28;20468;-61
2022/12/07 04:24:38;;;;;;;32.95;24.85;;;11.20;84.90;;;;;;20905173;28;20420;-61
2022/12/07 04:34:42;;;;;;;31.17;22.57;;;11.20;85.00;;;;;;20920844;28;20060;-61
2022/12/07 04:44:47;;;;;;;32.73;24.30;;;11.10;84.90;;;;;;20920861;28;20041;-62
2022/12/07 04:54:51;;;;;;;33.50;24.10;;;11.10;84.90;;;;;;20918696;28;20049;-61
2022/12/07 05:04:54;;;;;;;27.98;20.90;;;11.10;84.70;;;;;;20918763;28;20416;-61
2022/12/07 05:14:56;;;;;;;31.85;22.20;;;11.00;84.80;;;;;;20918858;28;20053;-60
2022/12/07 05:24:59;;;;;;;33.15;21.45;;;10.90;84.80;;;;;;20917584;28;20135;-60
2022/12/07 05:35:03;;;;;;;32.58;20.67;;;10.90;84.70;;;;;;20916304;28;20095;-61
2022/12/07 05:45:05;;;;;;;31.58;20.63;;;10.80;84.80;;;;;;20916589;28;20122;-61
2022/12/07 05:55:07;;;;;;;29.05;19.10;;;10.80;84.80;;;;;;20914708;28;20059;-62
2022/12/07 06:05:09;;;;;;;34.45;19.13;;;10.80;84.70;;;;;;20914724;28;20128;-62
2022/12/07 06:15:12;;;;;;;31.60;19.80;;;10.80;84.80;;;;;;20913629;28;20060;-62
2022/12/07 06:25:15;;;;;;;34.42;19.92;;;10.80;84.80;;;;;;20913318;28;20106;-62
2022/12/07 06:35:17;;;;;;;38.15;21.23;;;10.80;84.60;;;;;;20912249;28;20140;-63
2022/12/07 06:45:19;;;;;;;44.45;23.20;;;10.70;84.90;;;;;;20912325;28;20489;-61
2022/12/07 06:55:20;;;;;;;48.75;30.08;;;10.70;84.90;;;;;;20914195;28;20401;-62
2022/12/07 07:05:22;;;;;;;43.63;26.10;;;10.90;84.80;;;;;;20913526;28;20128;-61
2022/12/07 07:15:24;;;;;;;42.83;25.67;;;11.10;84.70;;;;;;20922459;28;20064;-61
2022/12/07 07:25:25;;;;;;;40.97;26.98;;;11.10;84.60;;;;;;20926051;28;20060;-61
2022/12/07 07:35:29;;;;;;;50.75;27.38;;;11.20;84.60;;;;;;20926284;28;20132;-61
2022/12/07 07:45:30;;;;;;;45.33;28.38;;;11.20;84.50;;;;;;20925566;28;20076;-62
2022/12/07 07:55:32;;;;;;;53.17;31.65;;;11.20;84.50;;;;;;20924253;28;20053;-62
2022/12/07 08:05:34;;;;;;;55.75;34.60;;;11.20;84.50;;;;;;20923484;28;20053;-61
2022/12/07 08:15:38;;;;;;;63.75;34.88;;;11.40;84.40;;;;;;20921681;28;20136;-61
2022/12/07 08:25:39;;;;;;;55.05;34.92;;;11.50;84.10;;;;;;20922080;28;20405;-61
2022/12/07 08:35:41;;;;;;;60.17;35.83;;;11.50;83.90;;;;;;20920744;28;20059;-61
2022/12/07 08:45:42;;;;;;;59.80;34.35;;;11.60;83.70;;;;;;20920253;28;20053;-63
2022/12/07 08:55:45;;;;;;;60.50;35.35;;;11.70;83.50;;;;;;20920207;28;20497;-63
2022/12/07 09:05:47;;;;;;;68.22;34.45;;;11.80;83.10;;;;;;20919823;28;20485;-62
2022/12/07 09:15:49;;;;;;;60.13;35.47;;;11.90;82.70;;;;;;20918449;28;20053;-62
2022/12/07 09:25:51;;;;;;;52.33;32.05;;;12.00;82.00;;;;;;20917556;28;20103;-62
2022/12/07 09:35:53;;;;;;;47.20;30.88;;;12.10;81.40;;;;;;20915710;28;20458;-61
2022/12/07 09:45:56;;;;;;;43.95;28.42;;;12.20;81.30;;;;;;20916020;28;20542;-62
2022/12/07 09:55:58;;;;;;;44.47;26.80;;;12.30;80.70;;;;;;20914952;28;20053;-61
2022/12/07 10:06:00;;;;;;;33.17;22.45;;;12.40;79.60;;;;;;20979069;28;20139;-57
2022/12/07 10:16:01;;;;;;;32.42;21.25;;;13.50;73.80;;;;;;20995884;28;20049;-56
2022/12/07 10:26:32;;;;;;;27.08;18.95;;;14.10;71.80;;;;;;20996342;28;20106;-56
2022/12/07 10:36:36;;;;;;;30.20;19.35;;;14.20;71.40;;;;;;20994659;28;20052;-58
2022/12/07 10:47:01;;;;;;;33.77;20.40;;;14.40;71.10;;;;;;21000891;28;20102;-56
2022/12/07 10:57:03;;;;;;;27.70;17.60;;;14.70;71.00;;;;;;20999380;28;20056;-56
2022/12/07 11:07:13;;;;;;;28.42;18.08;;;14.90;69.60;;;;;;20992695;28;20484;-52
2022/12/07 11:17:23;;;;;;;47.60;30.10;;;14.70;70.60;;;;;;21008959;28;20164;-54
2022/12/07 11:28:11;;;;;;;36.33;22.95;;;14.90;70.00;;;;;;21008110;28;20053;-54
2022/12/07 11:38:17;;;;;;;32.65;19.33;;;15.10;69.40;;;;;;20751960;28;20144;-58
2022/12/07 11:48:59;;;;;;;32.30;18.90;;;15.20;69.50;;;;;;20749956;28;20437;-56
2022/12/07 11:59:11;;;;;;;263.05;218.45;;;15.20;68.90;;;;;;20736125;28;20046;-55
2022/12/07 12:09:44;;;;;;;53.42;34.08;;;15.20;69.30;;;;;;20845009;28;20060;-57
2022/12/07 12:20:01;;;;;;;34.15;17.70;;;15.30;68.60;;;;;;21004840;28;20051;-62
2022/12/07 12:30:06;;;;;;;28.70;17.63;;;15.30;67.50;;;;;;21003949;28;20048;-58
2022/12/07 12:40:14;;;;;;;20.83;14.02;;;14.70;68.50;;;;;;21004615;28;20454;-62
2022/12/07 12:50:19;;;;;;;27.35;17.13;;;14.50;68.40;;;;;;21003025;28;20071;-60
2022/12/07 13:00:23;;;;;;;26.67;15.57;;;14.30;68.90;;;;;;21001573;28;20079;-59
2022/12/07 13:10:30;;;;;;;19.87;12.80;;;14.20;70.50;;;;;;20999795;28;20057;-60
2022/12/07 13:20:47;;;;;;;19.63;13.95;;;14.20;70.10;;;;;;20950050;28;20049;-60
2022/12/07 13:31:12;;;;;;;20.48;14.30;;;14.30;70.90;;;;;;20916845;28;20068;-60
2022/12/07 13:41:16;;;;;;;19.65;14.88;;;14.40;70.10;;;;;;20916206;28;20056;-59
2022/12/07 13:51:20;;;;;;;20.47;15.47;;;14.30;70.30;;;;;;20915258;28;20106;-59
2022/12/07 14:01:23;;;;;;;19.13;14.17;;;14.30;70.50;;;;;;20915468;28;20781;-61
2022/12/07 14:11:29;;;;;;;18.47;13.47;;;14.20;70.10;;;;;;20915170;28;20191;-61
2022/12/07 14:21:34;;;;;;;18.40;11.93;;;14.40;69.40;;;;;;20913921;28;20056;-59
2022/12/07 14:31:36;;;;;;;14.10;10.75;;;14.20;69.70;;;;;;20911954;28;20517;-61
2022/12/07 14:41:50;;;;;;;20.77;12.88;;;14.30;68.40;;;;;;20912750;28;20049;-60
2022/12/07 14:51:53;;;;;;;15.43;11.25;;;14.40;68.80;;;;;;20911699;28;20060;-60
2022/12/07 15:01:54;;;;;;;17.83;12.32;;;14.40;69.00;;;;;;20911526;28;20053;-61
2022/12/07 15:11:56;;;;;;;14.35;11.60;;;14.30;68.80;;;;;;20911938;28;20049;-60
2022/12/07 15:21:59;;;;;;;16.63;11.50;;;14.20;70.30;;;;;;20911307;28;20481;-61
2022/12/07 15:32:01;;;;;;;21.55;11.80;;;14.20;70.50;;;;;;20914740;28;20060;-60
2022/12/07 15:42:03;;;;;;;16.85;11.65;;;14.10;70.70;;;;;;20926476;28;20075;-62
2022/12/07 15:52:05;;;;;;;21.70;15.35;;;14.00;70.30;;;;;;20926118;28;20056;-64
2022/12/07 16:02:09;;;;;;;17.27;10.65;;;13.90;70.80;;;;;;20925365;28;20048;-59
2022/12/07 16:12:12;;;;;;;14.40;10.32;;;13.90;71.00;;;;;;20924964;28;20466;-60
2022/12/07 16:22:14;;;;;;;14.00;9.90;;;13.80;71.30;;;;;;20905594;28;20073;-61
2022/12/07 16:32:15;;;;;;;17.95;10.25;;;14.20;69.60;;;;;;20952059;28;20453;-70
2022/12/07 16:42:17;;;;;;;16.35;9.90;;;13.90;71.00;;;;;;21004966;28;20447;-67
2022/12/07 16:52:22;;;;;;;15.15;10.80;;;13.70;71.70;;;;;;21002658;28;20473;-65
2022/12/07 17:02:24;;;;;;;20.13;12.18;;;13.60;72.00;;;;;;21001696;28;20044;-68
2022/12/07 17:12:25;;;;;;;17.27;11.85;;;13.50;72.50;;;;;;21000514;28;20449;-59
2022/12/07 17:22:27;;;;;;;21.02;14.27;;;13.40;73.00;;;;;;21001233;28;20460;-59
2022/12/07 17:32:29;;;;;;;20.60;13.63;;;13.30;73.70;;;;;;20998518;28;20060;-61
2022/12/07 17:42:36;;;;;;;25.50;17.38;;;13.20;74.10;;;;;;20998179;28;20072;-61
2022/12/07 18:02:59;;;;;;;24.00;15.57;;;13.20;74.60;;;;;;20996265;28;20146;-57
2022/12/07 18:23:22;;;;;;;24.48;16.05;;;13.20;75.00;;;;;;20992501;28;20094;-69
2022/12/07 18:33:23;;;;;;;25.10;13.05;;;13.00;75.80;;;;;;20989367;28;20061;-59
2022/12/07 18:43:25;;;;;;;22.45;15.75;;;12.90;76.00;;;;;;20993415;28;20049;-60
2022/12/07 18:53:27;;;;;;;27.80;15.43;;;12.90;76.30;;;;;;20994407;28;20135;-60
2022/12/07 19:03:30;;;;;;;26.20;16.77;;;12.70;76.60;;;;;;20994017;28;20068;-63
2022/12/07 19:13:31;;;;;;;26.95;17.42;;;12.60;76.90;;;;;;20990808;28;20102;-62
2022/12/07 19:23:33;;;;;;;30.02;19.67;;;12.50;77.30;;;;;;21009042;28;20144;-58
2022/12/07 19:33:41;;;;;;;28.63;18.90;;;12.30;77.60;;;;;;21007201;28;20052;-60
2022/12/07 19:43:43;;;;;;;26.20;18.38;;;12.20;77.90;;;;;;21007276;28;20106;-62
2022/12/07 19:53:45;;;;;;;29.60;19.70;;;12.00;78.30;;;;;;21008168;28;20475;-61
2022/12/07 20:03:47;;;;;;;48.95;22.58;;;11.90;78.80;;;;;;21007382;28;20044;-59
2022/12/07 20:13:48;;;;;;;30.45;21.48;;;11.70;78.90;;;;;;21006511;28;20064;-60
2022/12/07 20:23:50;;;;;;;33.92;22.10;;;11.60;79.20;;;;;;21003935;28;20075;-62
2022/12/07 20:33:52;;;;;;;36.13;21.23;;;11.40;79.50;;;;;;21002874;28;20416;-59
2022/12/07 20:43:55;;;;;;;28.90;19.10;;;11.30;79.60;;;;;;20985866;28;20052;-60
2022/12/07 20:53:56;;;;;;;29.77;19.95;;;11.20;79.50;;;;;;21003230;28;20048;-59
2022/12/07 21:04:00;;;;;;;29.85;18.17;;;11.10;79.70;;;;;;21002068;28;20404;-61
2022/12/07 21:14:01;;;;;;;26.02;18.50;;;11.00;80.00;;;;;;21001281;28;20060;-61
2022/12/07 21:24:04;;;;;;;34.03;20.58;;;11.00;80.10;;;;;;21000062;28;20105;-61
2022/12/07 21:34:07;;;;;;;30.38;20.85;;;10.90;80.20;;;;;;20997452;28;20105;-63
2022/12/07 21:44:11;;;;;;;33.22;20.30;;;10.80;80.20;;;;;;20999833;28;20102;-60
2022/12/07 21:54:13;;;;;;;41.83;19.45;;;10.60;79.90;;;;;;20999640;28;20048;-59
2022/12/07 22:04:21;;;;;;;28.52;18.95;;;10.50;79.80;;;;;;20997248;28;20097;-61
2022/12/07 22:24:44;;;;;;;27.63;18.05;;;10.30;79.80;;;;;;20997307;28;20072;-61
2022/12/07 22:34:46;;;;;;;26.00;17.40;;;10.20;79.90;;;;;;20995263;28;20110;-60
2022/12/07 22:44:48;;;;;;;31.20;18.23;;;10.30;79.40;;;;;;20995085;28;20041;-64
2022/12/07 22:54:50;;;;;;;26.48;16.33;;;10.20;79.30;;;;;;20995269;28;20048;-60
2022/12/07 23:04:51;;;;;;;27.23;17.92;;;10.20;79.40;;;;;;20996013;28;20506;-62
2022/12/07 23:14:54;;;;;;;26.65;18.58;;;10.20;79.50;;;;;;20994497;28;20091;-62
2022/12/07 23:24:56;;;;;;;29.02;18.23;;;10.20;79.40;;;;;;20994972;28;20048;-63
2022/12/07 23:34:57;;;;;;;27.52;19.30;;;10.00;79.80;;;;;;20993724;28;20057;-62
2022/12/07 23:44:59;;;;;;;32.95;19.67;;;10.00;80.00;;;;;;20992985;28;20045;-60
2022/12/07 23:55:00;;;;;;;29.33;18.20;;;10.10;80.00;;;;;;21000771;28;20056;-61
